createdAt,value
2018-04-27T00:00:49.647Z,20.07
2018-04-27T00:03:17.989Z,16.97
2018-04-27T00:05:45.907Z,16.87
2018-04-27T00:08:13.785Z,17.83
2018-04-27T00:10:41.689Z,15.43
2018-04-27T00:13:10.385Z,14.80
2018-04-27T00:15:38.175Z,17.53
2018-04-27T00:18:06.099Z,15.10
2018-04-27T00:20:35.687Z,17.53
2018-04-27T00:29:55.120Z,20.37
2018-04-27T00:32:23.369Z,21.30
2018-04-27T00:34:51.297Z,24.33
2018-04-27T00:37:19.145Z,18.03
2018-04-27T00:39:46.952Z,16.57
2018-04-27T00:42:14.722Z,18.43
2018-04-27T00:44:42.630Z,18.90
2018-04-27T00:47:10.497Z,14.43
2018-04-27T00:49:38.312Z,14.50
2018-04-27T00:52:06.884Z,15.57
2018-04-27T00:54:34.647Z,15.03
2018-04-27T00:57:02.430Z,17.70
2018-04-27T00:59:30.190Z,14.97
2018-04-27T01:01:57.987Z,17.80
2018-04-27T01:04:26.538Z,18.17
2018-04-27T01:06:54.342Z,20.03
2018-04-27T01:09:22.018Z,18.07
2018-04-27T01:11:49.665Z,14.83
2018-04-27T01:14:18.070Z,16.77
2018-04-27T01:16:45.741Z,15.90
2018-04-27T01:19:13.425Z,15.97
2018-04-27T01:21:41.077Z,17.13
2018-04-27T01:24:08.784Z,16.27
2018-04-27T01:26:37.204Z,19.13
2018-04-27T01:29:05.010Z,14.03
2018-04-27T01:31:33.609Z,16.03
2018-04-27T01:34:01.293Z,17.37
2018-04-27T01:36:28.941Z,18.43
2018-04-27T01:38:57.399Z,18.47
2018-04-27T01:41:25.949Z,18.63
2018-04-27T01:43:53.805Z,17.20
2018-04-27T01:46:21.591Z,14.10
2018-04-27T01:48:50.124Z,18.17
2018-04-27T01:51:17.886Z,24.37
2018-04-27T01:53:45.647Z,19.93
2018-04-27T01:56:14.234Z,22.63
2018-04-27T01:58:41.919Z,18.80
2018-04-27T02:01:09.718Z,21.60
2018-04-27T02:03:38.154Z,19.30
2018-04-27T02:06:05.912Z,22.37
2018-04-27T02:08:33.572Z,16.97
2018-04-27T02:11:01.257Z,18.53
2018-04-27T02:13:28.918Z,19.93
2018-04-27T02:15:56.702Z,19.10
2018-04-27T02:18:25.243Z,17.57
2018-04-27T02:20:52.920Z,15.63
2018-04-27T02:23:20.606Z,14.87
2018-04-27T02:25:48.260Z,12.63
2018-04-27T02:28:15.901Z,15.87
2018-04-27T02:30:43.681Z,11.77
2018-04-27T02:33:11.402Z,15.10
2018-04-27T02:35:39.051Z,13.03
2018-04-27T02:38:06.720Z,11.07
2018-04-27T02:40:34.587Z,13.43
2018-04-27T02:43:02.411Z,13.40
2018-04-27T02:45:30.999Z,23.17
2018-04-27T02:47:58.841Z,12.07
2018-04-27T02:50:27.450Z,11.40
2018-04-27T02:52:55.314Z,11.13
2018-04-27T02:55:22.992Z,16.27
2018-04-27T02:57:50.844Z,12.10
2018-04-27T03:00:19.361Z,12.37
2018-04-27T03:02:47.014Z,14.27
2018-04-27T03:05:14.820Z,11.40
2018-04-27T03:07:43.397Z,16.37
2018-04-27T03:10:11.081Z,16.10
2018-04-27T03:12:39.540Z,13.00
2018-04-27T03:15:07.338Z,11.23
2018-04-27T03:17:35.153Z,16.93
2018-04-27T03:20:02.826Z,11.67
2018-04-27T03:22:30.532Z,14.63
2018-04-27T03:24:58.204Z,15.10
2018-04-27T03:27:25.842Z,16.50
2018-04-27T03:29:54.268Z,14.37
2018-04-27T03:32:21.940Z,16.00
2018-04-27T03:34:49.671Z,10.03
2018-04-27T03:37:17.433Z,12.87
2018-04-27T03:39:45.323Z,13.93
2018-04-27T03:42:13.132Z,16.97
2018-04-27T03:44:41.729Z,10.20
2018-04-27T03:47:09.405Z,17.10
2018-04-27T03:49:37.291Z,16.90
2018-04-27T03:52:05.099Z,15.93
2018-04-27T03:54:33.547Z,13.47
2018-04-27T03:57:01.329Z,13.37
2018-04-27T03:59:41.774Z,13.00
2018-04-27T04:02:21.416Z,17.93
2018-04-27T04:05:01.011Z,13.37
2018-04-27T04:07:28.850Z,10.73
2018-04-27T04:09:57.494Z,9.93
2018-04-27T04:12:25.340Z,10.13
2018-04-27T04:14:53.150Z,12.97
2018-04-27T04:17:21.735Z,11.57
2018-04-27T04:19:50.192Z,7.93
2018-04-27T04:22:17.849Z,11.10
2018-04-27T04:24:45.611Z,9.50
2018-04-27T04:27:13.355Z,9.20
2018-04-27T04:29:41.077Z,15.77
2018-04-27T04:32:09.486Z,10.70
2018-04-27T04:34:37.200Z,7.73
2018-04-27T04:37:05.730Z,9.77
2018-04-27T04:39:33.487Z,7.37
2018-04-27T04:42:01.279Z,19.17
2018-04-27T04:44:29.054Z,5.77
2018-04-27T04:46:56.706Z,11.00
2018-04-27T04:49:24.531Z,11.57
2018-04-27T04:51:52.241Z,8.63
2018-04-27T04:54:20.066Z,5.83
2018-04-27T04:56:48.663Z,6.33
2018-04-27T04:59:16.473Z,9.87
2018-04-27T05:01:45.045Z,5.87
2018-04-27T05:04:12.766Z,7.93
2018-04-27T05:06:40.428Z,7.93
2018-04-27T05:09:08.261Z,6.90
2018-04-27T05:11:36.738Z,10.57
2018-04-27T05:14:05.317Z,7.40
2018-04-27T05:16:33.955Z,6.90
2018-04-27T05:19:03.618Z,6.97
2018-04-27T05:21:31.412Z,6.83
2018-04-27T05:23:59.226Z,11.27
2018-04-27T05:26:27.790Z,6.83
2018-04-27T05:28:55.569Z,7.80
2018-04-27T05:31:25.155Z,7.80
2018-04-27T05:33:52.882Z,3.37
2018-04-27T05:36:20.737Z,11.80
2018-04-27T05:38:48.458Z,7.30
2018-04-27T05:41:16.191Z,8.83
2018-04-27T05:43:43.888Z,6.73
2018-04-27T05:46:11.628Z,9.33
2018-04-27T05:48:39.505Z,4.23
2018-04-27T05:51:07.430Z,10.43
2018-04-27T05:53:35.252Z,8.97
2018-04-27T05:56:03.761Z,4.40
2018-04-27T05:58:31.536Z,5.47
2018-04-27T06:00:59.250Z,9.50
2018-04-27T06:03:33.507Z,7.13
2018-04-27T06:06:01.359Z,12.13
2018-04-27T06:08:29.186Z,14.13
2018-04-27T06:10:56.995Z,4.60
2018-04-27T06:13:24.848Z,10.27
2018-04-27T06:15:52.668Z,7.00
2018-04-27T06:18:20.389Z,7.23
2018-04-27T06:20:48.238Z,5.77
2018-04-27T06:23:16.002Z,6.17
2018-04-27T06:25:43.843Z,5.50
2018-04-27T06:28:11.461Z,6.07
2018-04-27T06:30:39.140Z,5.00
2018-04-27T06:33:06.810Z,8.10
2018-04-27T06:35:34.494Z,6.37
2018-04-27T06:38:02.397Z,8.70
2018-04-27T06:40:30.185Z,8.50
2018-04-27T06:42:57.999Z,8.23
2018-04-27T06:45:26.286Z,3.33
2018-04-27T06:47:54.181Z,4.90
2018-04-27T06:50:22.035Z,4.10
2018-04-27T06:52:49.891Z,5.20
2018-04-27T06:55:17.767Z,7.67
2018-04-27T06:57:45.656Z,2.73
2018-04-27T07:00:13.546Z,5.47
2018-04-27T07:02:42.192Z,3.23
2018-04-27T07:05:10.196Z,5.83
2018-04-27T07:07:38.087Z,10.13
2018-04-27T07:10:05.970Z,7.83
2018-04-27T07:12:33.879Z,5.53
2018-04-27T07:15:01.767Z,3.33
2018-04-27T07:17:30.403Z,5.87
2018-04-27T07:19:58.210Z,11.27
2018-04-27T07:22:26.880Z,3.10
2018-04-27T07:24:54.819Z,5.07
2018-04-27T07:27:22.644Z,8.20
2018-04-27T07:29:51.289Z,4.10
2018-04-27T07:32:19.915Z,2.47
2018-04-27T07:34:47.893Z,9.20
2018-04-27T07:37:15.767Z,7.17
2018-04-27T07:39:43.624Z,6.23
2018-04-27T07:42:12.283Z,4.00
2018-04-27T07:44:40.935Z,4.33
2018-04-27T07:47:09.650Z,5.17
2018-04-27T07:49:38.361Z,2.90
2018-04-27T07:52:06.269Z,11.20
2018-04-27T07:54:34.082Z,3.17
2018-04-27T07:57:02.799Z,3.77
2018-04-27T07:59:30.667Z,6.07
2018-04-27T08:01:58.658Z,3.37
2018-04-27T08:04:26.539Z,5.43
2018-04-27T08:06:54.426Z,4.40
2018-04-27T08:09:23.060Z,5.43
2018-04-27T08:11:50.923Z,5.20
2018-04-27T08:14:18.804Z,5.07
2018-04-27T14:43:27.854Z,12.17
2018-04-27T14:45:55.656Z,9.37
2018-04-27T14:48:23.446Z,7.37
2018-04-27T14:50:51.362Z,13.73
2018-04-27T14:53:19.181Z,11.77
2018-04-27T14:55:46.875Z,12.60
2018-04-27T14:58:14.700Z,9.60
2018-04-27T15:00:43.165Z,9.23
2018-04-27T15:03:10.905Z,16.33
2018-04-27T15:05:38.616Z,12.53
2018-04-27T15:08:06.314Z,10.83
2018-04-27T15:10:34.027Z,15.60
2018-04-27T15:13:02.580Z,12.90
2018-04-27T15:15:30.249Z,12.30
2018-04-27T15:17:57.972Z,14.90
2018-04-27T15:20:25.685Z,9.47
2018-04-27T15:22:54.151Z,12.13
2018-04-27T15:25:21.900Z,11.87
2018-04-27T15:27:49.611Z,11.40
2018-04-27T15:30:17.309Z,11.37
2018-04-27T15:32:44.978Z,10.67
2018-04-27T15:35:12.673Z,10.33
2018-04-27T15:37:41.187Z,14.87
2018-04-27T15:40:08.938Z,14.47
2018-04-27T15:42:36.670Z,8.03
2018-04-27T15:45:04.399Z,20.40
2018-04-27T15:47:33.082Z,14.07
2018-04-27T15:50:00.847Z,9.17
2018-04-27T15:52:28.583Z,8.23
2018-04-27T15:54:56.240Z,12.70
2018-04-27T15:57:23.979Z,10.17
2018-04-27T15:59:52.432Z,11.07
2018-04-27T16:02:20.144Z,7.97
2018-04-27T16:04:47.873Z,11.33
2018-04-27T16:07:15.640Z,8.57
2018-04-27T16:09:44.160Z,11.57
2018-04-27T16:12:11.937Z,14.83
2018-04-27T16:14:39.665Z,10.80
2018-04-27T16:17:08.159Z,10.03
2018-04-27T16:19:35.857Z,11.87
2018-04-27T16:22:03.601Z,12.07
2018-04-27T16:24:31.312Z,7.20
2018-04-27T16:26:59.159Z,11.37
2018-04-27T16:29:26.852Z,14.90
2018-04-27T16:31:55.311Z,8.67
2018-04-27T16:34:23.039Z,14.20
2018-04-27T16:36:50.800Z,10.83
2018-04-27T16:39:18.498Z,9.67
2018-04-27T16:41:46.223Z,9.80
2018-04-27T16:44:13.924Z,12.67
2018-04-27T16:46:41.631Z,11.70
2018-04-27T16:49:09.292Z,8.60
2018-04-27T16:51:37.024Z,12.00
2018-04-27T16:54:04.773Z,8.73
2018-04-27T16:56:32.552Z,9.53
2018-04-27T16:59:01.036Z,12.40
2018-04-27T17:01:29.520Z,12.53
2018-04-27T17:03:58.037Z,10.47
2018-04-27T17:06:25.755Z,8.47
2018-04-27T17:08:54.240Z,11.03
2018-04-27T17:11:22.741Z,11.37
2018-04-27T17:13:50.459Z,12.40
2018-04-27T17:16:18.220Z,9.57
2018-04-27T17:18:45.949Z,13.43
2018-04-27T17:21:14.423Z,9.47
2018-04-27T17:23:42.140Z,10.73
2018-04-27T17:26:10.676Z,15.37
2018-04-27T17:28:38.497Z,13.67
2018-04-27T17:31:06.132Z,12.50
2018-04-27T17:33:33.884Z,16.47
2018-04-27T17:36:01.595Z,15.23
2018-04-27T17:38:29.359Z,10.47
2018-04-27T17:40:57.130Z,14.37
2018-04-27T17:43:24.992Z,13.13
2018-04-27T17:45:52.708Z,11.93
2018-04-27T17:48:20.473Z,11.20
2018-04-27T17:50:48.184Z,10.50
2018-04-27T17:53:15.861Z,10.47
2018-04-27T17:55:43.587Z,12.80
2018-04-27T17:58:11.234Z,10.20
2018-04-27T18:00:39.735Z,10.70
2018-04-27T18:03:07.426Z,10.87
2018-04-27T18:05:35.154Z,15.87
2018-04-27T18:08:02.847Z,13.70
2018-04-27T18:10:30.502Z,16.07
2018-04-27T18:12:58.172Z,9.60
2018-04-27T18:15:25.891Z,12.43
2018-04-27T18:17:54.406Z,12.27
2018-04-27T18:20:22.170Z,12.80
2018-04-27T18:22:49.849Z,14.37
2018-04-27T18:25:17.584Z,11.63
2018-04-27T18:27:46.125Z,12.13
2018-04-27T18:30:13.852Z,11.17
2018-04-27T18:32:41.525Z,24.90
2018-04-27T18:35:10.009Z,10.77
2018-04-27T18:37:37.775Z,16.70
2018-04-27T18:40:05.476Z,9.83
2018-04-27T18:42:33.328Z,9.40
2018-04-27T18:45:00.964Z,9.97
2018-04-27T18:47:28.701Z,10.20
2018-04-27T18:49:56.431Z,15.50
2018-04-27T18:52:24.149Z,8.17
2018-04-27T18:54:51.879Z,11.97
2018-04-27T18:57:24.122Z,11.13
2018-04-27T18:59:51.856Z,16.60
2018-04-27T19:02:21.277Z,13.03
2018-04-27T19:04:49.010Z,12.57
2018-04-27T19:07:16.734Z,14.27
2018-04-27T19:09:44.461Z,10.00
2018-04-27T19:12:12.937Z,12.80
2018-04-27T19:14:41.469Z,19.07
2018-04-27T19:17:10.401Z,12.87
2018-04-27T19:19:38.338Z,13.60
2018-04-27T19:22:06.096Z,10.50
2018-04-27T19:24:33.808Z,12.03
2018-04-27T19:27:01.563Z,14.77
2018-04-27T19:29:30.823Z,12.13
2018-04-27T19:31:58.527Z,17.07
2018-04-27T19:34:27.080Z,15.17
2018-04-27T19:36:54.851Z,9.47
2018-04-27T19:39:23.391Z,10.47
2018-04-27T19:41:51.097Z,18.27
2018-04-27T19:44:18.888Z,14.97
2018-04-27T19:46:46.614Z,15.70
2018-04-27T19:49:15.403Z,12.77
2018-04-27T19:51:43.126Z,16.13
2018-04-27T19:54:10.839Z,10.20
2018-04-27T19:56:39.304Z,13.50
2018-04-27T19:59:07.016Z,16.50
2018-04-27T20:01:34.756Z,11.03
2018-04-27T20:04:02.529Z,12.63
2018-04-27T20:06:30.312Z,11.00
2018-04-27T20:08:58.026Z,15.00
2018-04-27T20:11:25.820Z,14.13
2018-04-27T20:13:53.565Z,18.17
2018-04-27T20:16:33.200Z,16.70
2018-04-27T20:19:01.677Z,14.33
2018-04-27T20:21:30.149Z,14.40
2018-04-27T20:23:57.860Z,11.03
2018-04-27T20:26:25.563Z,18.37
2018-04-27T20:28:53.279Z,13.70
2018-04-27T20:31:20.993Z,16.20
2018-04-27T20:33:48.781Z,16.87
2018-04-27T20:36:17.250Z,17.47
2018-04-27T20:38:45.722Z,15.27
2018-04-27T20:41:13.445Z,13.67
2018-04-27T20:43:41.906Z,16.77
2018-04-27T20:46:09.628Z,15.33
2018-04-27T20:48:38.125Z,15.87
2018-04-27T20:51:09.446Z,17.90
2018-04-27T20:53:56.948Z,19.43
2018-04-27T20:56:27.458Z,17.13
2018-04-27T20:58:55.240Z,14.70
2018-04-27T21:01:22.971Z,26.73
2018-04-27T21:03:50.839Z,17.77
2018-04-27T21:06:18.622Z,15.70
2018-04-27T21:08:46.495Z,14.77
2018-04-27T21:11:14.255Z,18.73
2018-04-27T21:13:42.797Z,12.37
2018-04-27T21:16:10.557Z,15.77
2018-04-27T21:18:38.272Z,20.90
2018-04-27T21:21:06.023Z,11.73
2018-04-27T21:23:33.771Z,18.60
2018-04-27T21:26:01.482Z,15.87
2018-04-27T21:28:30.905Z,15.60
2018-04-27T21:30:59.486Z,12.03
2018-04-27T21:33:43.101Z,13.33
2018-04-27T21:36:11.650Z,14.93
2018-04-27T21:39:04.867Z,12.13
2018-04-27T21:41:51.396Z,13.27
2018-04-27T21:44:28.767Z,16.57
2018-04-27T21:47:07.216Z,16.73
2018-04-27T21:49:34.932Z,13.90
2018-04-27T21:52:05.380Z,13.37
2018-04-27T21:54:33.128Z,16.60
2018-04-27T21:57:07.386Z,15.10
2018-04-27T21:59:42.888Z,17.07
2018-04-27T22:02:11.385Z,17.40
2018-04-27T22:04:40.020Z,21.90
2018-04-27T22:07:24.452Z,19.20
2018-04-27T22:09:53.916Z,18.40
2018-04-27T22:12:23.500Z,17.20
2018-04-27T22:14:51.290Z,14.83
2018-04-27T22:17:19.075Z,19.13
2018-04-27T22:19:46.781Z,16.93
2018-04-27T22:22:16.156Z,13.73
2018-04-27T22:24:50.196Z,20.50
2018-04-27T22:27:18.669Z,13.93
2018-04-27T22:29:47.172Z,17.30
2018-04-27T22:32:19.809Z,15.70
2018-04-27T22:34:49.125Z,17.80
2018-04-27T22:37:19.377Z,19.47
2018-04-27T22:39:58.704Z,16.67
2018-04-27T22:42:27.271Z,18.93
2018-04-27T22:44:59.475Z,15.60
2018-04-27T22:47:29.023Z,12.27
2018-04-27T22:49:56.762Z,14.27
2018-04-27T22:52:24.549Z,14.60
2018-04-27T22:54:53.136Z,14.77
2018-04-27T22:57:40.373Z,17.23
2018-04-27T23:00:15.586Z,16.17
2018-04-27T23:02:44.344Z,18.10
2018-04-27T23:05:19.839Z,22.57
2018-04-27T23:07:49.128Z,17.20
2018-04-27T23:10:17.621Z,16.40
2018-04-27T23:12:51.957Z,13.67
2018-04-27T23:15:19.902Z,23.30
2018-04-27T23:17:47.772Z,19.77
2018-04-27T23:20:32.387Z,14.53
2018-04-27T23:23:02.655Z,15.20
2018-04-27T23:25:36.186Z,16.97
2018-04-27T23:28:04.848Z,13.43
2018-04-27T23:30:32.774Z,21.23
2018-04-27T23:33:01.436Z,13.77
2018-04-27T23:35:29.349Z,12.57
2018-04-27T23:37:57.247Z,13.90
2018-04-27T23:40:25.147Z,16.37
2018-04-27T23:42:53.148Z,14.17
2018-04-27T23:45:21.066Z,17.30
2018-04-27T23:47:48.957Z,16.27
2018-04-27T23:50:17.613Z,17.07
2018-04-27T23:52:45.506Z,15.27
2018-04-27T23:55:13.431Z,16.57
2018-04-27T23:57:43.279Z,12.83
